createdAt,value
2019-05-23T00:00:58.404Z,22.33
2019-05-23T00:03:42.612Z,20.40
2019-05-23T00:06:19.844Z,22.33
2019-05-23T00:08:50.178Z,21.83
2019-05-23T00:11:29.926Z,21.37
2019-05-23T00:14:02.026Z,22.27
2019-05-23T00:16:32.408Z,19.90
2019-05-23T00:19:02.651Z,18.90
2019-05-23T00:21:33.488Z,19.83
2019-05-23T00:24:04.516Z,20.43
2019-05-23T00:26:36.520Z,21.53
2019-05-23T00:29:10.445Z,20.77
2019-05-23T00:31:41.623Z,19.50
2019-05-23T00:34:12.822Z,18.93
2019-05-23T00:36:43.356Z,19.90
2019-05-23T00:39:14.626Z,19.47
2019-05-23T00:41:45.602Z,19.03
2019-05-23T00:44:16.293Z,17.60
2019-05-23T00:46:46.988Z,17.83
2019-05-23T00:49:18.958Z,18.40
2019-05-23T00:51:49.143Z,21.67
2019-05-23T00:54:19.881Z,19.00
2019-05-23T00:56:50.734Z,18.40
2019-05-23T00:59:27.010Z,19.37
2019-05-23T01:01:52.931Z,20.10
2019-05-23T01:04:22.970Z,20.90
2019-05-23T01:06:54.424Z,20.20
2019-05-23T01:09:26.546Z,20.33
2019-05-23T01:11:57.196Z,20.67
2019-05-23T01:14:27.775Z,21.77
2019-05-23T01:16:58.407Z,22.53
2019-05-23T01:19:28.633Z,20.60
2019-05-23T01:22:02.421Z,20.17
2019-05-23T01:24:40.133Z,20.47
2019-05-23T01:27:10.676Z,22.77
2019-05-23T01:29:42.731Z,19.83
2019-05-23T01:32:15.064Z,19.97
2019-05-23T01:34:45.634Z,19.47
2019-05-23T01:37:16.364Z,18.27
2019-05-23T01:39:45.789Z,19.03
2019-05-23T01:42:17.037Z,22.00
2019-05-23T01:44:47.854Z,20.53
2019-05-23T01:47:18.664Z,19.33
2019-05-23T01:49:49.976Z,22.13
2019-05-23T01:52:20.130Z,21.17
2019-05-23T01:54:49.293Z,22.83
2019-05-23T01:57:20.316Z,22.00
2019-05-23T02:00:06.157Z,20.23
2019-05-23T02:02:23.390Z,19.13
2019-05-23T02:04:53.677Z,19.30
2019-05-23T02:07:24.073Z,18.93
2019-05-23T02:09:53.773Z,20.73
2019-05-23T02:12:24.174Z,18.80
2019-05-23T02:14:55.289Z,20.13
2019-05-23T02:17:25.798Z,20.80
2019-05-23T02:19:55.158Z,20.40
2019-05-23T02:22:26.349Z,21.10
2019-05-23T02:24:57.030Z,19.07
2019-05-23T02:27:27.218Z,20.60
2019-05-23T02:29:57.703Z,20.40
2019-05-23T02:32:29.305Z,20.90
2019-05-23T02:35:00.840Z,20.23
2019-05-23T02:37:38.671Z,18.77
2019-05-23T02:40:14.238Z,19.70
2019-05-23T02:42:46.015Z,18.50
2019-05-23T02:45:20.220Z,17.77
2019-05-23T02:47:49.797Z,18.73
2019-05-23T02:50:31.780Z,18.03
2019-05-23T02:53:03.598Z,20.90
2019-05-23T02:55:36.433Z,19.47
2019-05-23T02:58:21.342Z,18.33
2019-05-23T03:01:00.589Z,18.33
2019-05-23T03:03:32.633Z,17.43
2019-05-23T03:06:02.840Z,17.27
2019-05-23T03:08:32.761Z,16.70
2019-05-23T03:11:20.161Z,17.57
2019-05-23T03:13:52.481Z,15.17
2019-05-23T03:16:24.913Z,17.13
2019-05-23T03:18:58.422Z,17.47
2019-05-23T03:21:29.061Z,21.07
2019-05-23T03:24:00.357Z,21.77
2019-05-23T03:26:33.556Z,18.63
2019-05-23T03:29:04.227Z,19.23
2019-05-23T03:31:39.454Z,23.73
2019-05-23T03:34:10.860Z,19.03
2019-05-23T03:36:41.234Z,18.97
2019-05-23T03:39:12.296Z,19.40
2019-05-23T03:41:41.626Z,19.97
2019-05-23T03:44:12.192Z,18.60
2019-05-23T03:46:43.421Z,17.23
2019-05-23T03:49:15.291Z,18.23
2019-05-23T03:51:45.317Z,17.40
2019-05-23T03:54:15.570Z,16.90
2019-05-23T03:56:47.209Z,16.67
2019-05-23T03:59:19.178Z,17.37
2019-05-23T04:01:50.052Z,19.03
2019-05-23T04:04:20.935Z,18.27
2019-05-23T04:06:51.585Z,20.23
2019-05-23T04:09:22.728Z,21.83
2019-05-23T04:11:52.573Z,22.43
2019-05-23T04:14:23.187Z,20.27
2019-05-23T04:16:52.579Z,19.57
2019-05-23T04:19:21.752Z,20.13
2019-05-23T04:21:51.906Z,19.10
2019-05-23T04:24:22.225Z,19.70
2019-05-23T04:26:52.036Z,17.70
2019-05-23T04:29:21.892Z,18.00
2019-05-23T04:32:07.117Z,20.17
2019-05-23T04:34:23.742Z,20.47
2019-05-23T04:36:53.491Z,19.10
2019-05-23T04:39:23.878Z,18.83
2019-05-23T04:41:53.562Z,19.80
2019-05-23T04:44:23.547Z,19.17
2019-05-23T04:46:54.620Z,19.77
2019-05-23T04:49:25.011Z,17.67
2019-05-23T04:51:55.339Z,18.23
2019-05-23T04:54:25.710Z,17.60
2019-05-23T04:56:55.464Z,19.00
2019-05-23T04:59:25.663Z,18.43
2019-05-23T05:02:00.217Z,19.30
2019-05-23T05:04:30.558Z,17.83
2019-05-23T05:07:00.245Z,19.13
2019-05-23T05:09:32.289Z,20.80
2019-05-23T05:12:02.443Z,23.00
2019-05-23T05:14:33.557Z,21.53
2019-05-23T05:17:03.613Z,24.03
2019-05-23T05:19:34.352Z,25.53
2019-05-23T05:22:03.566Z,26.70
2019-05-23T05:24:32.790Z,27.20
2019-05-23T05:27:02.264Z,26.70
2019-05-23T05:29:32.300Z,32.70
2019-05-23T05:32:03.983Z,32.37
2019-05-23T05:34:33.959Z,32.87
2019-05-23T05:37:04.709Z,33.90
2019-05-23T18:38:37.242Z,3.80
2019-05-23T18:41:09.117Z,4.17
